Time;durP1;ratioP1;P1;durP2;ratioP2;P2;SDS_P1;SDS_P2;PMS_P1;PMS_P2;Temp;Humidity;BMP_temperature;BMP_pressure;BME280_temperature;BME280_humidity;BME280_pressure;Samples;Min_cycle;Max_cycle;Signal;HPM_P1;HPM_P2
2023/07/05 00:01:14;;;;;;;7.18;3.92;;;;;;;18.12;89.35;99978.44;4859182;29;20162;-72
2023/07/05 00:05:08;;;;;;;11.00;2.97;;;;;;;18.12;89.88;99962.56;4857856;29;20056;-71
2023/07/05 03:03:17;;;;;;;3.50;1.48;;;;;;;17.70;96.17;99740.78;4918096;29;20499;-71
2023/07/05 03:06:47;;;;;;;6.05;1.30;;;;;;;17.78;96.14;99748.03;4910157;29;20043;-71
2023/07/05 03:09:53;;;;;;;3.75;1.35;;;;;;;17.70;95.82;99746.06;4918170;29;20973;-71
2023/07/05 03:13:26;;;;;;;;;;;;;;;17.78;96.61;99767.38;4910417;29;20168;-71
2023/07/05 03:16:31;;;;;;;3.08;1.40;;;;;;;17.71;96.61;99768.91;4906289;29;19922;-71
2023/07/05 03:19:42;;;;;;;4.57;1.63;;;;;;;17.65;96.84;99766.84;4917790;29;20167;-71
2023/07/05 03:22:46;;;;;;;4.00;1.25;;;;;;;17.72;96.76;99764.44;4917830;29;20051;-71
2023/07/05 03:25:58;;;;;;;3.38;1.40;;;;;;;17.74;96.81;99767.75;4917880;29;20075;-71
2023/07/05 03:29:36;;;;;;;4.25;1.55;;;;;;;17.68;97.62;99774.47;4905332;29;20043;-71
2023/07/05 03:32:44;;;;;;;4.20;1.95;;;;;;;17.71;97.65;99763.63;4917768;29;20051;-71
2023/07/05 03:35:56;;;;;;;2.53;1.15;;;;;;;17.71;97.79;99768.03;4918032;29;20520;-74
2023/07/05 03:39:01;;;;;;;4.10;1.40;;;;;;;17.68;97.67;99769.19;4918150;29;20418;-74
2023/07/05 03:42:07;;;;;;;5.63;1.60;;;;;;;17.79;97.24;99774.31;4917849;29;20554;-74
2023/07/05 03:45:11;;;;;;;3.60;1.40;;;;;;;17.87;96.10;99769.16;4917868;29;20107;-73
2023/07/05 03:48:18;;;;;;;4.88;1.52;;;;;;;17.97;91.20;99773.56;4918044;29;20067;-73
2023/07/05 03:51:23;;;;;;;4.25;1.40;;;;;;;17.98;92.44;99793.75;4917826;29;20103;-75
2023/07/05 03:54:29;;;;;;;4.32;1.88;;;;;;;18.03;92.55;99784.41;4917910;29;20403;-73
2023/07/05 03:57:33;;;;;;;5.38;1.58;;;;;;;17.94;93.81;99795.03;4917688;29;20095;-73
2023/07/05 04:00:38;;;;;;;5.03;1.50;;;;;;;18.03;94.52;99794.16;4905735;29;20186;-75
2023/07/05 04:03:51;;;;;;;4.40;2.20;;;;;;;17.89;92.86;99812.13;4916916;29;20054;-71
2023/07/05 04:07:26;;;;;;;7.13;2.20;;;;;;;18.02;93.54;99819.75;4912502;29;20378;-71
2023/07/05 04:10:30;;;;;;;5.97;1.73;;;;;;;18.06;94.91;99825.56;4916606;29;20063;-71
2023/07/05 04:28:55;;;;;;;3.55;1.27;;;;;;;18.15;92.52;99829.16;4897130;29;20399;-72
2023/07/05 04:31:59;;;;;;;2.92;1.20;;;;;;;18.03;89.16;99836.47;4916648;29;20082;-72
2023/07/05 04:35:19;;;;;;;4.65;1.17;;;;;;;17.98;90.76;99839.53;4917094;29;20095;-70
2023/07/05 04:38:25;;;;;;;8.73;2.30;;;;;;;18.03;89.74;99847.06;4905261;29;20043;-73
2023/07/05 04:41:30;;;;;;;4.30;1.50;;;;;;;17.91;87.92;99864.91;4916645;29;20039;-71
2023/07/05 04:44:35;;;;;;;4.20;1.40;;;;;;;17.77;88.86;99866.19;4915077;29;20454;-71
2023/07/05 04:47:39;;;;;;;3.92;1.77;;;;;;;17.81;86.88;99866.75;4914056;29;20135;-71
2023/07/05 04:50:44;;;;;;;6.82;2.33;;;;;;;17.87;87.14;99853.78;4914397;29;20435;-70
2023/07/05 04:53:49;;;;;;;5.47;2.03;;;;;;;17.78;86.05;99856.44;4915120;29;20088;-70
2023/07/05 04:56:54;;;;;;;9.43;2.20;;;;;;;17.83;86.41;99865.59;4915698;29;20103;-70
2023/07/05 05:00:04;;;;;;;4.43;1.58;;;;;;;17.54;80.10;99873.56;4916747;29;20138;-70
2023/07/05 05:03:08;;;;;;;3.78;1.42;;;;;;;17.52;81.34;99886.09;4916596;29;20054;-71
2023/07/05 05:06:13;;;;;;;3.80;1.80;;;;;;;17.48;79.88;99889.13;4916924;29;20516;-71
2023/07/05 05:09:18;;;;;;;3.30;1.60;;;;;;;17.48;79.04;99900.53;4916951;29;20129;-71
2023/07/05 05:12:23;;;;;;;3.80;1.95;;;;;;;17.44;79.24;99907.91;4916793;29;20087;-73
2023/07/05 05:15:27;;;;;;;3.17;2.08;;;;;;;17.29;77.54;99930.44;4915281;29;20051;-72
2023/07/05 05:18:43;;;;;;;4.25;2.10;;;;;;;17.49;76.58;99933.94;4915643;29;20578;-72
2023/07/05 05:21:48;;;;;;;3.13;1.65;;;;;;;17.26;73.49;99922.81;4915173;29;20064;-72
2023/07/05 05:24:56;;;;;;;5.63;2.70;;;;;;;17.04;72.57;99939.75;4915935;29;20554;-71
2023/07/05 05:28:02;;;;;;;3.15;2.15;;;;;;;16.89;74.17;99938.44;4915891;29;20110;-72
2023/07/05 05:31:09;;;;;;;4.45;2.47;;;;;;;16.53;72.03;99948.59;4915883;29;20565;-74
2023/07/05 05:34:24;;;;;;;3.50;2.47;;;;;;;16.52;73.41;99968.84;4916560;29;20135;-75
2023/07/05 05:37:28;;;;;;;9.13;4.15;;;;;;;16.20;68.37;99970.75;4916639;29;20096;-75
2023/07/05 05:40:34;;;;;;;5.70;3.25;;;;;;;16.10;68.53;99972.50;4916500;29;20126;-76
2023/07/05 05:43:39;;;;;;;5.82;2.95;;;;;;;15.99;68.24;99987.41;4920219;29;20055;-72
2023/07/05 05:46:44;;;;;;;4.47;3.10;;;;;;;16.08;66.53;99999.00;4920119;29;20051;-77
2023/07/05 05:49:49;;;;;;;8.20;3.45;;;;;;;16.21;62.24;99981.19;4920059;29;20140;-73
2023/07/05 05:52:54;;;;;;;5.63;3.88;;;;;;;16.24;63.54;99977.44;4908015;29;20092;-75
2023/07/05 05:56:02;;;;;;;5.95;3.80;;;;;;;16.33;63.21;99992.47;4920042;29;20414;-74
2023/07/05 05:59:07;;;;;;;8.40;4.22;;;;;;;16.11;63.17;100026.91;4919901;29;20442;-75
2023/07/05 06:02:12;;;;;;;7.28;4.25;;;;;;;16.32;62.73;100004.00;4919559;29;20092;-75
2023/07/05 06:09:49;;;;;;;6.18;3.40;;;;;;;16.39;61.51;100018.34;4879643;29;20068;-81
2023/07/05 06:12:52;;;;;;;6.57;3.25;;;;;;;16.28;61.27;100019.25;4880640;29;20124;-74
2023/07/05 06:15:58;;;;;;;4.60;3.35;;;;;;;16.19;61.15;100030.59;4881615;29;20055;-76
2023/07/05 06:19:02;;;;;;;5.15;3.20;;;;;;;16.20;60.75;100028.78;4881386;29;20048;-75
2023/07/05 06:22:05;;;;;;;9.07;3.35;;;;;;;16.51;59.73;100054.25;4881144;29;20051;-75
2023/07/05 06:25:12;;;;;;;5.95;3.83;;;;;;;16.37;59.63;100057.25;4881275;29;20047;-76
2023/07/05 06:28:17;;;;;;;5.72;3.28;;;;;;;16.23;59.83;100039.06;4881208;29;20193;-72
2023/07/05 06:31:21;;;;;;;5.82;2.65;;;;;;;16.21;59.92;100044.50;4881476;29;20065;-75
2023/07/05 06:34:24;;;;;;;5.60;3.40;;;;;;;16.46;60.62;100059.09;4881543;29;20113;-72
2023/07/05 06:37:27;;;;;;;;;;;;;;;16.62;58.79;100081.53;4870393;29;20108;-75
2023/07/05 06:40:30;;;;;;;5.47;2.90;;;;;;;16.40;57.85;100072.81;4881102;29;19974;-76
2023/07/05 06:43:34;;;;;;;4.25;2.60;;;;;;;16.35;57.15;100101.38;4880921;29;20410;-74
2023/07/05 06:46:37;;;;;;;5.65;2.72;;;;;;;16.28;56.63;100105.50;4880780;29;20151;-75
2023/07/05 06:49:40;;;;;;;4.72;2.47;;;;;;;16.21;56.10;100078.78;4881079;29;20051;-77
2023/07/05 06:52:44;;;;;;;4.35;2.22;;;;;;;16.35;56.15;100133.03;4880546;29;20209;-77
2023/07/05 06:55:48;;;;;;;11.90;2.58;;;;;;;15.89;55.92;100123.63;4880859;29;20055;-76
2023/07/05 06:58:52;;;;;;;5.93;2.40;;;;;;;15.88;55.14;100123.72;4869285;29;20586;-76
2023/07/05 07:01:56;;;;;;;7.53;2.75;;;;;;;16.02;54.74;100116.38;4880663;29;20044;-76
2023/07/05 07:04:59;;;;;;;4.63;2.50;;;;;;;16.32;54.24;100153.56;4880703;29;20104;-79
2023/07/05 07:08:03;;;;;;;5.45;2.88;;;;;;;16.28;54.16;100142.44;4861670;29;20419;-78
2023/07/05 07:11:09;;;;;;;6.88;2.45;;;;;;;15.95;54.14;100177.63;4861846;29;20447;-80
2023/07/05 07:14:12;;;;;;;5.00;2.88;;;;;;;15.74;54.85;100159.94;4850593;29;20095;-81
2023/07/05 07:17:15;;;;;;;8.20;3.10;;;;;;;15.94;55.24;100146.97;4861665;29;20048;-79
2023/07/05 07:20:19;;;;;;;4.80;2.40;;;;;;;15.94;55.15;100160.97;4861655;29;20052;-80
2023/07/05 07:23:28;;;;;;;7.70;2.63;;;;;;;15.86;55.16;100146.72;4861566;29;20532;-79
2023/07/05 07:26:31;;;;;;;6.45;2.60;;;;;;;15.94;55.03;100139.88;4861686;29;20109;-79
2023/07/05 07:29:35;;;;;;;5.88;3.65;;;;;;;16.23;53.89;100144.59;4861911;29;20048;-77
2023/07/05 07:32:38;;;;;;;3.25;2.15;;;;;;;16.12;54.37;100157.84;4861627;29;20057;-79
2023/07/05 07:35:41;;;;;;;4.47;2.25;;;;;;;15.94;54.24;100160.97;4861470;29;20519;-83
2023/07/05 07:38:45;;;;;;;6.00;2.35;;;;;;;16.13;54.81;100144.50;4861706;29;20113;-80
2023/07/05 07:41:48;;;;;;;6.70;2.72;;;;;;;16.31;54.28;100142.19;4861083;29;20068;-79
2023/07/05 07:44:55;;;;;;;3.85;2.40;;;;;;;16.44;53.79;100142.00;4861346;29;20423;-79
2023/07/05 07:47:59;;;;;;;4.28;2.28;;;;;;;16.40;53.94;100164.31;4850068;29;20133;-80
2023/07/05 07:51:02;;;;;;;8.55;1.95;;;;;;;16.27;54.14;100156.56;4861303;29;20150;-79
2023/07/05 07:54:18;;;;;;;4.25;1.92;;;;;;;16.37;53.65;100154.88;4861145;29;20044;-79
2023/07/05 07:57:21;;;;;;;6.10;2.00;;;;;;;16.55;52.83;100149.84;4860775;29;20120;-79
2023/07/05 08:00:25;;;;;;;2.92;1.83;;;;;;;16.73;53.58;100150.97;4860576;29;20048;-79
2023/07/05 08:03:28;;;;;;;3.75;2.00;;;;;;;16.89;52.56;100153.19;4859413;29;20057;-80
2023/07/05 08:06:42;;;;;;;4.07;2.13;;;;;;;16.70;52.74;100174.97;4848523;29;20072;-80
2023/07/05 08:09:50;;;;;;;7.82;1.85;;;;;;;16.57;51.89;100186.69;4859805;29;20181;-80
2023/07/05 08:12:53;;;;;;;3.67;1.30;;;;;;;16.39;52.69;100176.66;4859852;29;20064;-80
2023/07/05 08:15:59;;;;;;;3.45;1.58;;;;;;;16.57;53.14;100195.44;4860637;29;20064;-79
2023/07/05 08:19:02;;;;;;;7.18;1.90;;;;;;;16.52;53.05;100187.88;4861083;29;20084;-79
2023/07/05 08:22:09;;;;;;;3.45;1.73;;;;;;;16.61;52.68;100196.00;4860735;29;20101;-80
2023/07/05 08:25:13;;;;;;;5.85;1.90;;;;;;;16.56;52.77;100203.47;4860948;29;20052;-80
2023/07/05 08:28:16;;;;;;;4.32;1.77;;;;;;;16.61;53.68;100198.66;4860864;29;20056;-80
2023/07/05 08:31:20;;;;;;;5.35;2.03;;;;;;;16.70;53.28;100200.53;4860766;29;20068;-80
2023/07/05 08:34:23;;;;;;;4.18;1.75;;;;;;;16.90;53.10;100205.00;4860589;29;20048;-80
2023/07/05 08:37:27;;;;;;;6.25;1.73;;;;;;;17.09;52.47;100199.03;4860565;29;20088;-80
2023/07/05 08:40:40;;;;;;;4.72;1.92;;;;;;;17.34;52.21;100208.34;4860596;29;20054;-80
2023/07/05 08:43:50;;;;;;;6.13;2.30;;;;;;;17.55;51.40;100197.75;4860659;29;20102;-80
2023/07/05 08:47:07;;;;;;;4.25;1.63;;;;;;;17.76;51.19;100208.25;4860607;29;20101;-80
2023/07/05 08:50:20;;;;;;;3.58;1.70;;;;;;;16.95;51.88;100226.59;4860591;29;20088;-80
2023/07/05 08:53:26;;;;;;;3.13;1.47;;;;;;;16.98;52.45;100216.75;4860664;29;20048;-80
2023/07/05 08:56:38;;;;;;;3.55;2.03;;;;;;;17.11;52.43;100220.03;4860395;29;20096;-80
2023/07/05 08:59:44;;;;;;;3.13;1.63;;;;;;;17.07;52.10;100223.88;4860361;29;20514;-80
2023/07/05 09:02:48;;;;;;;5.10;1.90;;;;;;;17.15;52.33;100213.53;4860238;29;20417;-80
2023/07/05 09:06:09;;;;;;;4.30;2.08;;;;;;;17.29;52.20;100229.03;4860142;29;20099;-80
2023/07/05 09:09:46;;;;;;;4.40;2.33;;;;;;;17.24;52.21;100231.25;4860246;29;20527;-80
2023/07/05 09:13:14;;;;;;;4.50;1.38;;;;;;;17.27;51.75;100256.56;4860185;29;20104;-80
2023/07/05 09:16:36;;;;;;;3.85;1.70;;;;;;;17.18;51.55;100258.19;4849446;29;20185;-80
2023/07/05 09:19:46;;;;;;;7.13;1.40;;;;;;;17.40;51.43;100246.63;4863867;29;20109;-80
2023/07/05 09:22:51;;;;;;;3.25;1.55;;;;;;;17.51;51.28;100249.19;4863757;29;20128;-80
2023/07/05 09:26:01;;;;;;;4.05;1.48;;;;;;;17.51;51.48;100246.53;4863724;29;20040;-80
2023/07/05 09:29:29;;;;;;;2.80;1.40;;;;;;;17.64;51.19;100259.53;4863724;29;20055;-80
2023/07/05 09:32:39;;;;;;;2.63;1.30;;;;;;;17.41;51.68;100272.91;4863898;29;20052;-80
2023/07/05 09:35:45;;;;;;;2.83;1.27;;;;;;;17.22;51.39;100264.88;4863637;29;20071;-80
2023/07/05 09:39:21;;;;;;;4.03;1.58;;;;;;;17.41;51.69;100275.56;4863490;29;20081;-80
2023/07/05 09:42:32;;;;;;;6.82;1.40;;;;;;;17.79;51.20;100284.69;4863485;29;20076;-80
2023/07/05 09:45:36;;;;;;;3.53;1.27;;;;;;;17.67;51.09;100275.97;4863343;29;20071;-80
2023/07/05 09:48:53;;;;;;;3.10;1.20;;;;;;;17.71;51.53;100287.16;4863498;29;20110;-81
2023/07/05 09:51:57;;;;;;;5.10;1.38;;;;;;;17.67;51.37;100291.84;4863465;29;20097;-80
2023/07/05 09:55:03;;;;;;;2.28;1.05;;;;;;;17.70;50.57;100296.03;4852163;29;20522;-80
2023/07/05 09:58:15;;;;;;;2.95;1.20;;;;;;;17.78;50.90;100304.19;4863310;29;20052;-80
2023/07/05 10:01:23;;;;;;;6.25;1.48;;;;;;;17.82;49.86;100302.94;4863067;29;20063;-80
2023/07/05 10:04:29;;;;;;;6.38;1.40;;;;;;;18.17;49.71;100296.41;4863309;29;20052;-80
2023/07/05 10:07:55;;;;;;;2.20;1.10;;;;;;;18.02;49.60;100300.38;4862752;29;20091;-81
2023/07/05 10:11:02;;;;;;;3.20;1.23;;;;;;;18.34;48.87;100297.56;4863221;29;20060;-80
2023/07/05 10:14:14;;;;;;;3.83;1.35;;;;;;;18.19;48.51;100301.53;4862972;29;20129;-80
2023/07/05 10:17:17;;;;;;;5.65;1.80;;;;;;;18.06;48.94;100315.00;4863015;29;20052;-81
2023/07/05 10:20:24;;;;;;;5.40;1.40;;;;;;;18.07;48.89;100314.06;4862811;29;20052;-81
2023/07/05 10:23:44;;;;;;;3.17;1.15;;;;;;;18.23;48.01;100308.25;4862435;29;20606;-81
2023/07/05 10:27:21;;;;;;;4.07;1.15;;;;;;;17.92;49.24;100310.09;4862768;29;20639;-80
2023/07/05 10:30:27;;;;;;;6.95;1.70;;;;;;;17.91;48.73;100316.34;4860771;29;20076;-80
2023/07/05 10:33:32;;;;;;;4.47;1.45;;;;;;;18.02;48.44;100319.72;4861523;29;20048;-81
2023/07/05 10:36:44;;;;;;;3.38;1.13;;;;;;;18.20;48.75;100305.88;4862061;29;20518;-81
2023/07/05 10:39:47;;;;;;;7.28;2.03;;;;;;;18.19;48.82;100317.41;4861910;29;20109;-80
2023/07/05 10:43:01;;;;;;;6.35;1.60;;;;;;;17.83;47.56;100312.53;4862009;29;20069;-80
2023/07/05 10:46:04;;;;;;;9.85;1.52;;;;;;;18.16;46.39;100330.94;4862637;29;20486;-81
2023/07/05 10:49:15;;;;;;;5.68;1.52;;;;;;;18.32;45.32;100320.69;4862508;29;20144;-81
2023/07/05 10:52:24;;;;;;;6.40;1.50;;;;;;;18.17;45.47;100314.09;4862368;29;20101;-82
2023/07/05 10:55:53;;;;;;;7.93;1.58;;;;;;;18.48;44.91;100312.22;4862302;29;20060;-81
2023/07/05 10:59:05;;;;;;;2.08;1.00;;;;;;;18.41;44.93;100326.97;4862365;29;20061;-81
2023/07/05 11:02:11;;;;;;;5.73;1.23;;;;;;;18.38;43.35;100324.59;4862421;29;20078;-80
2023/07/05 11:05:46;;;;;;;4.10;1.33;;;;;;;18.50;43.44;100321.69;4862255;29;20408;-81
2023/07/05 11:08:50;;;;;;;13.10;1.55;;;;;;;18.33;43.17;100307.31;4862017;29;20472;-81
2023/07/05 11:11:58;;;;;;;3.92;1.20;;;;;;;18.72;42.90;100333.88;4850708;29;20041;-80
2023/07/05 11:15:04;;;;;;;5.20;1.80;;;;;;;18.57;43.79;100317.53;4861898;29;20056;-81
2023/07/05 11:18:19;;;;;;;4.50;1.15;;;;;;;18.78;43.43;100328.03;4862000;29;20105;-82
2023/07/05 11:21:52;;;;;;;4.50;1.30;;;;;;;18.75;43.42;100323.03;4861825;29;20128;-82
2023/07/05 11:24:56;;;;;;;5.35;1.73;;;;;;;19.06;43.21;100328.22;4815511;29;20134;-81
2023/07/05 11:27:59;;;;;;;4.80;1.63;;;;;;;19.17;43.19;100337.81;4861080;29;20053;-79
2023/07/05 11:31:27;;;;;;;6.82;1.45;;;;;;;18.99;42.38;100348.28;4861684;29;20106;-80
2023/07/05 11:34:41;;;;;;;4.70;1.45;;;;;;;19.18;43.04;100336.88;4861825;29;20109;-80
2023/07/05 11:37:44;;;;;;;4.72;1.15;;;;;;;19.10;41.82;100334.88;4862031;29;20132;-80
2023/07/05 11:40:58;;;;;;;4.15;1.23;;;;;;;19.24;41.21;100342.44;4861165;29;20049;-77
2023/07/05 11:44:21;;;;;;;9.15;1.33;;;;;;;19.01;40.88;100367.53;4861695;29;20067;-78
2023/07/05 11:47:25;;;;;;;5.18;1.25;;;;;;;19.17;41.56;100343.13;4860334;29;20579;-77
2023/07/05 11:50:28;;;;;;;5.85;2.50;;;;;;;19.22;41.50;100339.06;4859955;29;20117;-79
2023/07/05 11:53:33;;;;;;;6.70;1.83;;;;;;;19.25;41.46;100345.91;4861082;29;20052;-82
2023/07/05 11:56:40;;;;;;;7.85;1.80;;;;;;;19.32;40.75;100336.41;4860410;29;20538;-75
2023/07/05 11:59:55;;;;;;;8.13;1.73;;;;;;;19.22;41.93;100341.72;4860324;29;20051;-79
2023/07/05 12:03:13;;;;;;;5.75;1.75;;;;;;;19.73;41.06;100350.34;4861205;29;20464;-81
2023/07/05 12:06:32;;;;;;;5.53;1.83;;;;;;;19.41;40.92;100348.81;4861407;29;20486;-82
2023/07/05 12:09:42;;;;;;;3.53;1.63;;;;;;;19.49;40.80;100364.03;4861064;29;20041;-77
2023/07/05 12:12:46;;;;;;;6.28;1.70;;;;;;;19.57;40.70;100348.25;4861017;29;20101;-76
2023/07/05 12:15:52;;;;;;;9.02;1.92;;;;;;;19.57;40.70;100342.94;4860704;29;20048;-75
2023/07/05 12:18:56;;;;;;;16.45;2.35;;;;;;;19.62;41.24;100356.63;4860893;29;20148;-80
2023/07/05 12:22:03;;;;;;;6.82;2.13;;;;;;;19.81;40.89;100349.59;4849275;29;20464;-80
2023/07/05 12:25:09;;;;;;;4.35;1.90;;;;;;;19.86;40.76;100347.38;4861018;29;20057;-80
2023/07/05 12:28:15;;;;;;;8.60;2.42;;;;;;;20.05;40.56;100359.75;4861049;29;20106;-80
2023/07/05 12:31:22;;;;;;;6.07;1.77;;;;;;;19.79;40.01;100354.25;4860716;29;20129;-77
2023/07/05 12:34:25;;;;;;;5.97;1.40;;;;;;;19.91;39.81;100358.38;4860669;29;20423;-76
2023/07/05 12:37:30;;;;;;;6.22;1.33;;;;;;;19.71;39.88;100347.81;4860778;29;20045;-77
2023/07/05 12:40:40;;;;;;;5.40;1.88;;;;;;;19.78;40.04;100363.16;4860586;29;20048;-78
2023/07/05 12:43:46;;;;;;;5.13;1.67;;;;;;;19.83;39.89;100343.19;4860660;29;20056;-76
2023/07/05 12:46:49;;;;;;;4.93;1.65;;;;;;;19.90;39.91;100360.19;4860641;29;20059;-80
2023/07/05 12:50:03;;;;;;;6.45;1.70;;;;;;;20.09;38.73;100343.38;4860584;29;20472;-76
2023/07/05 12:53:18;;;;;;;9.38;1.83;;;;;;;20.14;38.81;100350.91;4860398;29;20052;-77
2023/07/05 12:56:31;;;;;;;4.50;1.42;;;;;;;20.52;37.91;100367.69;4860630;29;20084;-74
2023/07/05 12:59:37;;;;;;;4.72;1.27;;;;;;;20.72;37.84;100344.47;4859387;29;20075;-76
2023/07/05 13:02:44;;;;;;;3.83;1.25;;;;;;;20.91;37.24;100352.31;4848077;29;20477;-81
2023/07/05 13:06:37;;;;;;;5.95;1.42;;;;;;;20.75;37.55;100349.50;4860243;29;20055;-88
2023/07/05 13:14:32;;;;;;;6.25;1.38;;;;;;;20.32;38.36;100369.53;4860225;29;20411;-77
2023/07/05 13:17:35;;;;;;;3.85;1.33;;;;;;;20.08;38.57;100352.31;4860179;29;20049;-78
2023/07/05 13:20:38;;;;;;;9.98;1.90;;;;;;;20.29;38.44;100344.09;4859995;29;20048;-77
2023/07/05 13:23:47;;;;;;;5.45;1.10;;;;;;;20.52;38.45;100354.41;4860211;29;20041;-76
2023/07/05 13:26:50;;;;;;;9.43;1.63;;;;;;;20.28;38.90;100344.28;4848655;29;20106;-77
2023/07/05 13:29:54;;;;;;;6.05;1.92;;;;;;;20.27;39.04;100337.31;4860111;29;20056;-78
2023/07/05 13:32:59;;;;;;;6.32;1.23;;;;;;;20.26;38.51;100348.88;4860281;29;20056;-76
2023/07/05 13:36:08;;;;;;;5.22;1.58;;;;;;;20.11;38.96;100341.41;4860286;29;20204;-77
2023/07/05 13:39:13;;;;;;;3.45;1.52;;;;;;;20.01;39.43;100345.94;4860095;29;20051;-77
2023/07/05 13:42:16;;;;;;;4.80;1.52;;;;;;;19.82;39.14;100348.66;4859872;29;20162;-77
2023/07/05 13:45:26;;;;;;;5.20;1.83;;;;;;;19.84;39.42;100346.66;4859888;29;20454;-77
2023/07/05 13:48:29;;;;;;;4.63;1.70;;;;;;;20.07;40.20;100334.72;4859799;29;20093;-77
2023/07/05 13:51:33;;;;;;;4.40;1.60;;;;;;;21.00;38.55;100324.81;4859851;29;20113;-77
2023/07/05 13:54:37;;;;;;;5.05;1.38;;;;;;;21.73;36.81;100329.03;4859797;29;20074;-77
2023/07/05 13:57:53;;;;;;;6.65;1.50;;;;;;;22.17;35.89;100335.13;4859694;29;20563;-78
2023/07/05 14:00:56;;;;;;;5.80;1.65;;;;;;;22.19;35.51;100357.13;4848529;29;20088;-77
2023/07/05 14:04:00;;;;;;;3.78;1.35;;;;;;;21.70;35.94;100334.69;4862482;29;20048;-77
2023/07/05 14:07:05;;;;;;;5.28;1.55;;;;;;;21.41;35.91;100337.63;4861854;29;20080;-78
2023/07/05 14:10:13;;;;;;;4.88;1.50;;;;;;;21.57;36.51;100341.28;4862043;29;20100;-77
2023/07/05 14:13:19;;;;;;;10.52;1.65;;;;;;;22.19;35.71;100332.31;4863453;29;20052;-77
2023/07/05 14:16:24;;;;;;;4.45;1.40;;;;;;;21.97;35.57;100323.03;4851632;29;20105;-78
2023/07/05 14:19:31;;;;;;;5.40;1.42;;;;;;;21.56;36.35;100328.94;4851647;29;20048;-78
2023/07/05 14:22:36;;;;;;;4.70;1.55;;;;;;;21.50;36.59;100318.09;4862958;29;20081;-78
2023/07/05 14:25:46;;;;;;;5.78;1.80;;;;;;;21.69;37.11;100327.69;4862782;29;20048;-79
2023/07/05 14:28:51;;;;;;;3.83;1.67;;;;;;;21.49;36.29;100349.19;4863041;29;20048;-81
2023/07/05 14:31:55;;;;;;;8.32;1.65;;;;;;;21.29;36.29;100337.03;4862730;29;20112;-79
2023/07/05 14:34:58;;;;;;;2.85;1.35;;;;;;;21.18;36.67;100329.28;4862949;29;20056;-77
2023/07/05 14:38:02;;;;;;;9.90;2.10;;;;;;;21.05;37.17;100319.88;4862511;29;20575;-77
2023/07/05 14:41:10;;;;;;;4.57;1.58;;;;;;;21.47;37.60;100340.50;4862458;29;20120;-79
2023/07/05 14:44:14;;;;;;;8.75;2.17;;;;;;;21.15;36.95;100333.06;4861565;29;20125;-79
2023/07/05 14:47:18;;;;;;;5.75;1.88;;;;;;;21.03;36.89;100374.19;4862310;29;20048;-77
2023/07/05 14:50:23;;;;;;;8.95;1.90;;;;;;;20.78;37.75;100342.06;4862191;29;20097;-78
2023/07/05 14:53:29;;;;;;;5.53;1.70;;;;;;;20.57;37.71;100331.69;4862286;29;20477;-78
2023/07/05 14:56:36;;;;;;;7.15;2.08;;;;;;;20.48;38.46;100337.84;4861913;29;20181;-77
2023/07/05 14:59:43;;;;;;;7.00;1.95;;;;;;;20.55;38.32;100348.75;4862229;29;20041;-77
2023/07/05 15:02:51;;;;;;;3.70;1.70;;;;;;;20.63;38.20;100341.72;4829757;29;20105;-79
2023/07/05 15:06:04;;;;;;;3.83;1.50;;;;;;;20.58;38.46;100349.31;4862204;29;20423;-75
2023/07/05 15:09:12;;;;;;;6.55;1.80;;;;;;;20.51;38.35;100348.22;4862243;29;20068;-76
2023/07/05 15:12:18;;;;;;;6.88;1.90;;;;;;;20.44;38.24;100355.09;4862181;29;20094;-76
2023/07/05 15:15:36;;;;;;;4.78;1.77;;;;;;;20.51;38.52;100350.00;4850432;29;20048;-76
2023/07/05 15:18:41;;;;;;;7.15;1.80;;;;;;;20.57;38.58;100347.63;4850751;29;20049;-75
2023/07/05 15:21:48;;;;;;;5.20;1.77;;;;;;;20.47;38.54;100348.66;4861737;29;20052;-77
2023/07/05 15:24:52;;;;;;;4.90;1.90;;;;;;;20.48;38.91;100347.66;4860975;29;20418;-78
2023/07/05 15:27:56;;;;;;;4.13;1.63;;;;;;;20.36;39.14;100353.19;4862103;29;20115;-77
2023/07/05 15:30:59;;;;;;;4.22;1.80;;;;;;;20.46;39.16;100350.47;4861983;29;20060;-76
2023/07/05 15:34:03;;;;;;;4.70;1.83;;;;;;;20.52;39.35;100349.09;4862024;29;20391;-80
2023/07/05 15:37:07;;;;;;;4.32;1.92;;;;;;;20.56;39.20;100350.44;4861573;29;20523;-76
2023/07/05 15:40:11;;;;;;;5.38;2.00;;;;;;;20.57;39.15;100352.94;4861356;29;20064;-76
2023/07/05 15:43:16;;;;;;;5.63;1.60;;;;;;;20.60;39.07;100342.03;4861191;29;20043;-78
2023/07/05 15:46:19;;;;;;;9.40;1.70;;;;;;;20.61;39.31;100359.66;4861471;29;20052;-78
2023/07/05 15:49:22;;;;;;;4.57;1.60;;;;;;;20.50;39.14;100346.53;4861376;29;20469;-77
2023/07/05 15:52:26;;;;;;;4.80;1.77;;;;;;;20.56;39.76;100351.28;4861277;29;20044;-77
2023/07/05 15:55:30;;;;;;;11.63;2.65;;;;;;;20.64;39.50;100358.50;4861026;29;20521;-78
2023/07/05 15:58:42;;;;;;;4.35;1.98;;;;;;;20.59;39.42;100356.28;4860983;29;20113;-81
2023/07/05 16:01:55;;;;;;;6.05;2.35;;;;;;;20.60;39.64;100357.13;4860946;29;20469;-78
2023/07/05 16:04:59;;;;;;;9.00;2.47;;;;;;;20.74;39.43;100364.59;4861253;29;20440;-78
2023/07/05 16:08:05;;;;;;;7.68;2.10;;;;;;;20.76;39.34;100356.47;4860887;29;20052;-78
2023/07/05 16:11:12;;;;;;;6.07;1.80;;;;;;;20.84;39.43;100356.56;4860888;29;20469;-78
2023/07/05 16:14:16;;;;;;;9.98;3.53;;;;;;;20.72;39.32;100360.41;4849624;29;20474;-79
2023/07/05 16:17:19;;;;;;;6.65;2.45;;;;;;;20.62;39.65;100355.16;4861146;29;20056;-75
2023/07/05 16:20:23;;;;;;;6.13;1.92;;;;;;;20.48;39.94;100375.03;4861097;29;20073;-79
2023/07/05 16:23:27;;;;;;;9.60;2.47;;;;;;;20.40;40.47;100372.31;4860935;29;20534;-80
2023/07/05 16:26:30;;;;;;;5.85;2.00;;;;;;;20.38;41.06;100404.31;4859713;29;20055;-81
2023/07/05 16:29:36;;;;;;;6.63;5.13;;;;;;;20.31;40.95;100389.13;4861022;29;20145;-80
2023/07/05 16:32:42;;;;;;;8.52;2.35;;;;;;;20.25;41.10;100413.59;4849721;29;20105;-80
2023/07/05 16:35:57;;;;;;;9.75;7.93;;;;;;;20.09;40.93;100430.97;4849175;29;20455;-77
2023/07/05 16:39:02;;;;;;;5.82;2.25;;;;;;;19.91;41.27;100419.41;4847769;29;20436;-79
2023/07/05 16:42:08;;;;;;;6.80;2.20;;;;;;;19.88;42.20;100422.38;4847974;29;20052;-79
2023/07/05 16:45:17;;;;;;;10.30;2.35;;;;;;;19.92;42.21;100429.88;4848056;29;20087;-78
2023/07/05 16:48:36;;;;;;;6.10;2.42;;;;;;;19.88;42.59;100438.28;4848232;29;20133;-78
2023/07/05 16:51:46;;;;;;;5.05;2.17;;;;;;;19.79;42.74;100452.41;4859137;29;20055;-81
2023/07/05 16:59:46;;;;;;;5.85;1.73;;;;;;;19.62;43.97;100436.19;4889458;29;20118;-79
2023/07/05 17:02:51;;;;;;;7.18;1.88;;;;;;;19.49;44.34;100448.88;4887211;29;20048;-80
2023/07/05 17:27:59;;;;;;;6.40;2.10;;;;;;;19.62;44.88;100473.34;6232007;22;1292689;-79
2023/07/05 17:31:10;;;;;;;5.05;1.90;;;;;;;19.58;45.01;100473.72;6284394;22;20518;-80
2023/07/05 17:34:18;;;;;;;3.83;2.03;;;;;;;19.51;45.29;100470.81;6266337;22;20026;-79
2023/07/05 17:37:26;;;;;;;5.53;2.08;;;;;;;19.64;45.22;100473.22;6269349;22;20072;-80
2023/07/05 17:40:32;;;;;;;3.25;1.55;;;;;;;19.43;46.24;100474.16;6285656;22;20026;-80
2023/07/05 17:43:39;;;;;;;4.13;2.08;;;;;;;19.37;46.10;100473.84;6284619;22;20085;-81
2023/07/05 17:46:46;;;;;;;5.53;1.95;;;;;;;19.29;46.35;100482.50;6282858;22;20065;-81
2023/07/05 17:49:55;;;;;;;4.90;1.90;;;;;;;19.31;46.30;100471.78;6247366;22;20026;-83
2023/07/05 17:53:05;;;;;;;3.85;1.52;;;;;;;19.18;46.31;100485.28;6232606;22;20085;-80
2023/07/05 17:56:18;;;;;;;4.47;1.50;;;;;;;19.19;45.84;100495.75;6284414;22;20026;-81
2023/07/05 17:59:27;;;;;;;3.17;1.48;;;;;;;19.16;45.46;100482.75;6284135;22;20108;-82
2023/07/05 18:02:34;;;;;;;7.90;1.20;;;;;;;19.13;45.63;100483.03;6231088;22;20026;-81
2023/07/05 18:05:38;;;;;;;4.90;1.40;;;;;;;19.13;45.65;100472.44;6265480;22;20070;-81
2023/07/05 18:08:47;;;;;;;3.45;1.30;;;;;;;19.16;46.10;100476.63;6266164;22;20399;-80
2023/07/05 18:11:52;;;;;;;4.90;1.85;;;;;;;19.13;45.73;100490.97;6284639;22;20022;-81
2023/07/05 18:15:09;;;;;;;4.50;1.15;;;;;;;19.14;45.81;100491.81;6284530;22;20349;-81
2023/07/05 18:18:15;;;;;;;5.93;1.35;;;;;;;19.12;45.90;100497.25;6265532;22;20027;-81
2023/07/05 18:21:27;;;;;;;3.08;1.30;;;;;;;19.10;46.05;100495.72;6284409;22;20463;-82
2023/07/05 18:24:33;;;;;;;3.38;1.40;;;;;;;19.04;45.99;100505.88;6266045;22;20061;-80